Time;durP1;ratioP1;P1;durP2;ratioP2;P2;SDS_P1;SDS_P2;PMS_P1;PMS_P2;Temp;Humidity;BMP_temperature;BMP_pressure;BME280_temperature;BME280_humidity;BME280_pressure;Samples;Min_cycle;Max_cycle;Signal;HPM_P1;HPM_P2
2021/11/19 00:02:12;;;;;;;3.78;2.47;;;17.80;62.40;;;;;;5051946;28;20175;-62
2021/11/19 00:04:38;;;;;;;7.10;2.67;;;17.90;62.50;;;;;;5050837;28;20187;-61
2021/11/19 00:07:03;;;;;;;5.32;2.63;;;17.80;62.50;;;;;;5051942;28;20277;-60
2021/11/19 00:09:29;;;;;;;5.45;3.15;;;17.80;62.40;;;;;;5051771;28;20288;-61
2021/11/19 00:11:55;;;;;;;5.13;2.85;;;17.80;62.50;;;;;;5051235;28;20175;-62
2021/11/19 00:14:21;;;;;;;4.70;2.75;;;17.80;62.50;;;;;;5051962;28;20179;-62
2021/11/19 00:16:49;;;;;;;3.83;2.72;;;17.80;62.40;;;;;;5051715;28;20190;-63
2021/11/19 00:19:14;;;;;;;6.32;2.97;;;17.80;62.40;;;;;;5051290;28;20179;-63
2021/11/19 00:21:41;;;;;;;5.05;2.50;;;17.80;62.50;;;;;;5051702;28;20285;-64
2021/11/19 00:24:07;;;;;;;4.75;2.83;;;17.70;62.40;;;;;;5051932;28;20171;-64
2021/11/19 00:26:33;;;;;;;4.78;2.55;;;17.80;62.40;;;;;;5051054;28;20186;-63
2021/11/19 00:28:59;;;;;;;4.30;2.70;;;17.70;62.40;;;;;;5055871;28;20636;-63
2021/11/19 00:31:25;;;;;;;4.00;2.95;;;17.70;62.40;;;;;;5055940;28;20206;-62
2021/11/19 00:33:51;;;;;;;3.67;2.38;;;17.70;62.40;;;;;;5055106;28;20202;-63
2021/11/19 00:36:17;;;;;;;3.67;2.72;;;17.70;62.40;;;;;;5055933;28;20265;-62
2021/11/19 00:38:43;;;;;;;6.75;2.88;;;17.70;62.50;;;;;;5055700;28;20505;-66
2021/11/19 00:41:09;;;;;;;4.68;2.75;;;17.70;62.40;;;;;;5055251;28;20183;-62
2021/11/19 00:43:35;;;;;;;3.38;2.45;;;17.70;62.40;;;;;;5055416;28;20267;-63
2021/11/19 00:46:00;;;;;;;4.57;2.58;;;17.70;62.50;;;;;;5055362;28;20352;-62
2021/11/19 00:48:27;;;;;;;4.95;2.92;;;17.70;62.40;;;;;;5054957;28;20245;-61
2021/11/19 00:51:25;;;;;;;3.88;2.47;;;17.70;62.40;;;;;;5055383;28;20254;-62
2021/11/19 00:53:52;;;;;;;7.22;3.33;;;17.60;62.40;;;;;;5054381;28;20175;-63
2021/11/19 00:56:19;;;;;;;4.40;2.47;;;17.70;62.40;;;;;;5055411;28;20185;-63
2021/11/19 00:58:45;;;;;;;5.22;3.00;;;17.70;62.40;;;;;;5055019;28;20179;-62
2021/11/19 01:01:14;;;;;;;4.80;2.90;;;17.60;62.30;;;;;;5054756;28;20475;-62
2021/11/19 01:03:40;;;;;;;4.65;2.80;;;17.60;62.30;;;;;;5055044;28;20187;-63
2021/11/19 01:06:05;;;;;;;4.40;2.42;;;17.60;62.40;;;;;;5055118;28;20574;-62
2021/11/19 01:08:31;;;;;;;5.50;2.90;;;17.60;62.40;;;;;;5054209;28;20203;-61
2021/11/19 01:10:59;;;;;;;4.15;2.88;;;17.60;62.30;;;;;;5055008;28;20233;-62
2021/11/19 01:13:25;;;;;;;4.30;2.63;;;17.60;62.40;;;;;;5054972;28;20201;-63
2021/11/19 01:15:53;;;;;;;3.90;2.53;;;17.60;62.30;;;;;;5054174;28;20592;-63
2021/11/19 01:18:34;;;;;;;3.92;2.53;;;17.60;62.30;;;;;;5055030;28;20179;-62
2021/11/19 01:21:01;;;;;;;3.83;2.60;;;17.60;62.30;;;;;;5055039;28;20182;-62
2021/11/19 01:23:27;;;;;;;3.35;2.60;;;17.60;62.40;;;;;;5053946;28;20626;-62
2021/11/19 01:26:03;;;;;;;4.28;2.90;;;17.60;62.40;;;;;;5054639;28;20175;-63
2021/11/19 01:28:29;;;;;;;5.05;2.50;;;17.60;62.40;;;;;;5054416;28;20214;-62
2021/11/19 01:30:57;;;;;;;4.18;2.78;;;17.60;62.40;;;;;;5054074;28;20170;-62
2021/11/19 01:33:24;;;;;;;4.03;2.90;;;17.60;62.40;;;;;;5054703;28;20182;-62
2021/11/19 01:35:49;;;;;;;4.07;2.70;;;17.60;62.30;;;;;;5053532;28;20244;-63
2021/11/19 01:38:15;;;;;;;4.57;2.80;;;17.60;62.80;;;;;;5054333;28;20179;-62
2021/11/19 01:40:44;;;;;;;5.13;2.70;;;17.50;62.30;;;;;;5054375;28;20266;-62
2021/11/19 01:43:11;;;;;;;4.03;2.65;;;17.50;62.30;;;;;;5053913;28;20317;-63
2021/11/19 01:45:42;;;;;;;3.67;2.97;;;17.50;62.30;;;;;;5053976;28;20234;-63
2021/11/19 01:48:12;;;;;;;5.25;2.70;;;17.50;62.40;;;;;;5054316;28;20215;-62
2021/11/19 01:50:42;;;;;;;5.70;3.20;;;17.50;62.30;;;;;;5053237;28;20171;-62
2021/11/19 01:53:28;;;;;;;5.15;3.30;;;17.50;62.40;;;;;;5054402;28;20171;-63
2021/11/19 01:56:08;;;;;;;3.60;2.53;;;17.50;62.30;;;;;;5053169;28;20185;-64
2021/11/19 01:58:38;;;;;;;4.25;2.83;;;17.50;62.30;;;;;;5052026;28;20179;-63
2021/11/19 02:01:16;;;;;;;5.32;2.67;;;17.50;62.30;;;;;;5052798;28;20643;-63
2021/11/19 02:03:44;;;;;;;4.07;2.50;;;17.50;62.40;;;;;;5053849;28;20618;-63
2021/11/19 02:06:46;;;;;;;3.75;2.95;;;17.50;62.30;;;;;;5053395;28;20179;-62
2021/11/19 02:09:19;;;;;;;4.43;3.15;;;17.50;62.40;;;;;;5042462;28;20272;-61
2021/11/19 02:12:03;;;;;;;4.72;2.53;;;17.50;62.40;;;;;;5051635;28;20198;-62
2021/11/19 02:14:50;;;;;;;4.22;2.90;;;17.50;62.40;;;;;;5053587;28;20645;-62
2021/11/19 02:17:16;;;;;;;3.28;2.50;;;17.50;62.40;;;;;;5052610;28;20182;-63
2021/11/19 02:19:46;;;;;;;3.60;3.05;;;17.50;62.40;;;;;;5052679;28;20175;-63
2021/11/19 02:22:18;;;;;;;6.15;3.22;;;17.40;62.30;;;;;;5052731;28;20172;-63
2021/11/19 02:24:56;;;;;;;5.65;3.08;;;17.40;62.40;;;;;;5052326;28;20218;-63
2021/11/19 02:27:28;;;;;;;3.50;2.40;;;17.40;62.40;;;;;;5051608;28;20210;-63
2021/11/19 02:29:57;;;;;;;4.22;3.10;;;17.40;62.30;;;;;;5052255;28;20281;-63
2021/11/19 02:32:25;;;;;;;4.85;2.60;;;17.40;62.40;;;;;;5052800;28;20179;-62
2021/11/19 02:34:51;;;;;;;4.47;2.90;;;17.40;62.40;;;;;;5053360;28;20254;-63
2021/11/19 02:37:36;;;;;;;4.85;3.22;;;17.40;62.40;;;;;;5053738;28;20258;-62
2021/11/19 02:40:08;;;;;;;3.38;3.03;;;17.40;62.40;;;;;;5051497;28;20183;-62
2021/11/19 02:42:38;;;;;;;4.90;3.22;;;17.40;62.40;;;;;;5052923;28;20701;-63
2021/11/19 02:45:10;;;;;;;3.38;2.78;;;17.40;62.40;;;;;;5053103;28;20231;-62
2021/11/19 02:47:36;;;;;;;4.28;2.88;;;17.40;62.40;;;;;;5052314;28;20203;-64
2021/11/19 02:50:05;;;;;;;3.10;2.78;;;17.40;62.40;;;;;;5052504;28;20171;-62
2021/11/19 02:52:33;;;;;;;5.15;2.88;;;17.40;62.40;;;;;;5052804;28;20183;-63
2021/11/19 02:54:59;;;;;;;5.95;3.15;;;17.30;62.40;;;;;;5052285;28;20182;-63
2021/11/19 02:57:25;;;;;;;3.45;2.55;;;17.40;62.40;;;;;;5052850;28;20171;-64
2021/11/19 02:59:51;;;;;;;3.88;2.90;;;17.40;62.40;;;;;;5052869;28;20179;-64
2021/11/19 03:02:20;;;;;;;3.10;2.55;;;17.30;62.30;;;;;;5052199;28;20179;-63
2021/11/19 03:04:53;;;;;;;3.70;2.80;;;17.30;62.40;;;;;;5052685;28;20182;-63
2021/11/19 03:07:19;;;;;;;6.15;2.90;;;17.30;62.40;;;;;;5052189;28;20228;-62
2021/11/19 03:09:53;;;;;;;4.28;2.92;;;17.30;62.40;;;;;;5052354;28;20183;-61
2021/11/19 03:12:21;;;;;;;3.65;3.22;;;17.30;62.40;;;;;;5052747;28;20219;-63
2021/11/19 03:14:47;;;;;;;3.33;2.58;;;17.30;62.40;;;;;;5051697;28;20179;-64
2021/11/19 03:17:13;;;;;;;4.32;3.10;;;17.30;62.40;;;;;;5052714;28;20202;-63
2021/11/19 03:19:39;;;;;;;3.75;2.97;;;17.30;62.40;;;;;;5052353;28;20639;-63
2021/11/19 03:22:05;;;;;;;4.13;3.20;;;17.30;62.30;;;;;;5051605;28;20233;-63
2021/11/19 03:24:31;;;;;;;5.57;3.20;;;17.30;62.30;;;;;;5052151;28;20211;-63
2021/11/19 03:26:56;;;;;;;3.40;2.67;;;17.30;62.30;;;;;;5052487;28;20601;-63
2021/11/19 03:29:22;;;;;;;3.28;2.97;;;17.30;62.40;;;;;;5051764;28;20253;-62
2021/11/19 03:31:48;;;;;;;3.85;2.80;;;17.30;62.40;;;;;;5052060;28;20513;-62
2021/11/19 03:34:14;;;;;;;4.57;2.88;;;17.20;62.30;;;;;;5052307;28;20206;-63
2021/11/19 03:36:41;;;;;;;4.43;3.42;;;17.30;62.40;;;;;;5051446;28;20658;-62
2021/11/19 03:39:08;;;;;;;4.07;3.00;;;17.30;62.40;;;;;;5052158;28;20171;-63
2021/11/19 03:41:35;;;;;;;3.50;3.20;;;17.30;62.40;;;;;;5052034;28;20224;-63
2021/11/19 03:44:12;;;;;;;3.63;2.78;;;17.30;62.40;;;;;;5051658;28;20179;-64
2021/11/19 03:46:53;;;;;;;3.88;3.00;;;17.20;62.30;;;;;;5051762;28;20230;-62
2021/11/19 03:49:18;;;;;;;3.90;2.67;;;17.20;62.30;;;;;;5052142;28;20264;-62
2021/11/19 03:51:47;;;;;;;3.83;3.13;;;17.30;62.40;;;;;;5050982;28;20171;-63
2021/11/19 03:54:13;;;;;;;3.88;3.35;;;17.30;62.40;;;;;;5052249;28;20220;-63
2021/11/19 03:56:38;;;;;;;3.25;2.88;;;17.20;62.30;;;;;;5051211;28;20189;-64
2021/11/19 03:59:05;;;;;;;3.75;2.70;;;17.20;62.30;;;;;;5052004;28;20206;-64
2021/11/19 04:01:33;;;;;;;4.90;3.13;;;17.30;62.40;;;;;;5050861;28;20220;-63
2021/11/19 04:04:00;;;;;;;3.13;2.83;;;17.20;62.40;;;;;;5051270;28;20209;-63
2021/11/19 04:06:25;;;;;;;3.30;2.95;;;17.20;62.30;;;;;;5051908;28;20194;-61
2021/11/19 04:08:51;;;;;;;3.70;2.90;;;17.20;62.40;;;;;;5051992;28;20242;-62
2021/11/19 04:11:17;;;;;;;4.38;3.30;;;17.20;62.30;;;;;;5051165;28;20213;-61
2021/11/19 04:13:43;;;;;;;3.95;3.17;;;17.20;62.30;;;;;;5051394;28;20198;-63
2021/11/19 04:16:12;;;;;;;4.60;3.38;;;17.20;62.40;;;;;;5051726;28;20171;-63
2021/11/19 04:18:37;;;;;;;3.67;3.00;;;17.20;62.40;;;;;;5050684;28;20217;-63
2021/11/19 04:21:03;;;;;;;3.70;3.03;;;17.20;62.40;;;;;;5051992;28;20545;-64
2021/11/19 04:23:28;;;;;;;3.30;2.75;;;17.20;62.40;;;;;;5051503;28;20171;-63
2021/11/19 04:25:55;;;;;;;3.85;3.17;;;17.20;62.40;;;;;;5051028;28;20582;-63
2021/11/19 04:28:20;;;;;;;4.40;3.35;;;17.20;62.40;;;;;;5051875;28;20207;-62
2021/11/19 04:30:47;;;;;;;4.90;3.13;;;17.20;62.40;;;;;;5051408;28;20297;-63
2021/11/19 04:33:13;;;;;;;3.15;2.85;;;17.20;62.40;;;;;;5050944;28;20276;-63
2021/11/19 04:35:38;;;;;;;4.10;3.25;;;17.20;62.40;;;;;;5051585;28;20254;-64
2021/11/19 04:38:04;;;;;;;4.97;3.42;;;17.20;62.40;;;;;;5051752;28;20240;-64
2021/11/19 04:40:31;;;;;;;3.35;2.92;;;17.20;62.40;;;;;;5050732;28;20185;-63
2021/11/19 04:42:56;;;;;;;4.32;3.15;;;17.20;62.50;;;;;;5051584;28;20266;-63
2021/11/19 04:45:23;;;;;;;3.88;2.90;;;17.20;62.40;;;;;;5051401;28;20223;-63
2021/11/19 04:47:49;;;;;;;3.20;2.88;;;17.20;62.40;;;;;;5050296;28;20211;-63
2021/11/19 04:50:16;;;;;;;4.93;3.20;;;17.10;62.40;;;;;;5051625;28;20191;-63
2021/11/19 04:52:42;;;;;;;3.78;3.35;;;17.10;62.40;;;;;;5050993;28;20266;-64
2021/11/19 04:55:08;;;;;;;4.30;3.28;;;17.10;62.50;;;;;;5051140;28;20377;-64
2021/11/19 04:57:33;;;;;;;5.00;3.28;;;17.10;62.40;;;;;;5051058;28;20259;-65
2021/11/19 04:59:59;;;;;;;4.00;3.58;;;17.10;62.40;;;;;;5050691;28;20258;-65
2021/11/19 05:02:27;;;;;;;3.97;3.00;;;17.10;62.40;;;;;;5051296;28;20677;-64
2021/11/19 05:04:52;;;;;;;4.32;3.05;;;17.10;62.40;;;;;;5051220;28;20171;-63
2021/11/19 05:07:18;;;;;;;4.18;2.85;;;17.10;62.40;;;;;;5050725;28;20258;-62
2021/11/19 05:09:44;;;;;;;4.22;3.10;;;17.10;62.40;;;;;;5051136;28;20329;-63
2021/11/19 05:12:19;;;;;;;5.40;3.20;;;17.10;62.50;;;;;;5051440;28;20245;-62
2021/11/19 05:14:47;;;;;;;3.70;2.97;;;17.10;62.50;;;;;;5053856;28;20594;-64
2021/11/19 05:17:12;;;;;;;3.13;2.88;;;17.10;62.50;;;;;;5054942;28;20571;-63
2021/11/19 05:19:38;;;;;;;5.35;3.17;;;17.10;62.50;;;;;;5054900;28;20207;-63
2021/11/19 05:22:04;;;;;;;4.28;3.25;;;17.10;62.50;;;;;;5054122;28;20218;-64
2021/11/19 05:24:29;;;;;;;4.07;3.33;;;17.10;62.50;;;;;;5054443;28;20171;-63
2021/11/19 05:26:55;;;;;;;3.45;2.75;;;17.10;62.50;;;;;;5054836;28;20175;-64
2021/11/19 05:29:23;;;;;;;4.90;3.45;;;17.10;62.50;;;;;;5054002;28;20203;-62
2021/11/19 05:31:49;;;;;;;3.90;3.50;;;17.10;62.50;;;;;;5054363;28;20270;-64
2021/11/19 05:34:15;;;;;;;3.95;3.03;;;17.00;62.50;;;;;;5054621;28;20248;-62
2021/11/19 05:36:41;;;;;;;4.75;3.25;;;17.10;62.50;;;;;;5053536;28;20610;-62
2021/11/19 05:39:07;;;;;;;4.05;3.20;;;17.10;62.50;;;;;;5054746;28;20643;-62
2021/11/19 05:41:32;;;;;;;5.68;3.45;;;17.10;62.50;;;;;;5054404;28;20195;-62
2021/11/19 05:43:58;;;;;;;5.18;3.50;;;17.10;62.50;;;;;;5053690;28;20692;-63
2021/11/19 05:46:25;;;;;;;3.90;3.20;;;17.00;62.50;;;;;;5054677;28;20258;-61
2021/11/19 05:48:51;;;;;;;3.47;3.17;;;17.00;62.50;;;;;;5054010;28;20215;-63
2021/11/19 05:51:17;;;;;;;3.78;3.38;;;17.00;62.50;;;;;;5053818;28;20254;-62
2021/11/19 05:53:43;;;;;;;3.60;3.25;;;17.00;62.50;;;;;;5054182;28;20214;-62
2021/11/19 05:56:09;;;;;;;3.63;3.28;;;17.00;62.50;;;;;;5053634;28;20646;-63
2021/11/19 05:58:36;;;;;;;4.15;3.65;;;17.00;62.50;;;;;;5053843;28;20716;-63
2021/11/19 06:01:04;;;;;;;4.20;3.40;;;17.00;62.60;;;;;;5054584;28;20548;-63
2021/11/19 06:03:30;;;;;;;3.38;2.92;;;17.00;62.50;;;;;;5053341;28;20182;-62
2021/11/19 06:05:55;;;;;;;3.20;2.85;;;17.00;62.50;;;;;;5054193;28;20558;-62
2021/11/19 06:08:21;;;;;;;4.03;3.28;;;17.00;62.50;;;;;;5054148;28;20211;-61
2021/11/19 06:10:55;;;;;;;3.50;3.20;;;17.00;62.60;;;;;;5053005;28;20607;-61
2021/11/19 06:13:30;;;;;;;3.25;2.95;;;17.00;62.60;;;;;;5054128;28;20187;-62
2021/11/19 06:16:03;;;;;;;4.07;3.70;;;17.00;62.50;;;;;;5052886;28;20175;-64
2021/11/19 06:18:34;;;;;;;3.10;2.80;;;17.00;62.60;;;;;;5052130;28;20175;-63
2021/11/19 06:21:02;;;;;;;3.72;3.35;;;17.00;62.60;;;;;;5052728;28;20266;-63
2021/11/19 06:23:35;;;;;;;5.28;4.25;;;17.00;62.60;;;;;;5053876;28;20187;-62
2021/11/19 06:26:02;;;;;;;5.03;3.75;;;17.00;62.60;;;;;;5052405;28;20226;-62
2021/11/19 06:28:32;;;;;;;4.45;3.35;;;17.00;62.60;;;;;;5053819;28;20226;-62
2021/11/19 06:30:59;;;;;;;3.65;3.05;;;17.00;62.60;;;;;;5053867;28;20185;-61
2021/11/19 06:33:24;;;;;;;3.83;3.30;;;17.00;62.60;;;;;;5053094;28;20656;-61
2021/11/19 06:35:50;;;;;;;4.63;3.10;;;17.00;62.60;;;;;;5053219;28;20183;-62
2021/11/19 06:38:16;;;;;;;3.15;2.67;;;17.00;62.60;;;;;;5052695;28;20723;-60
2021/11/19 06:40:42;;;;;;;3.78;3.47;;;17.00;62.60;;;;;;5053459;28;20215;-61
2021/11/19 06:43:07;;;;;;;3.80;2.92;;;16.90;62.60;;;;;;5053661;28;20536;-61
2021/11/19 06:45:34;;;;;;;3.45;3.15;;;16.90;62.60;;;;;;5052185;28;20930;-62
2021/11/19 06:48:03;;;;;;;4.13;3.25;;;16.90;62.60;;;;;;5053299;28;20219;-62
2021/11/19 06:50:29;;;;;;;3.38;3.03;;;16.90;63.40;;;;;;5053035;28;20258;-60
2021/11/19 06:52:54;;;;;;;3.67;3.33;;;16.90;62.60;;;;;;5052583;28;20183;-62
2021/11/19 06:55:20;;;;;;;3.28;2.97;;;16.90;62.60;;;;;;5053335;28;20175;-62
2021/11/19 06:57:46;;;;;;;3.83;3.20;;;16.90;62.60;;;;;;5053053;28;20175;-65
2021/11/19 07:00:21;;;;;;;3.35;3.05;;;16.90;62.60;;;;;;5052520;28;20172;-62
2021/11/19 07:02:46;;;;;;;3.47;3.00;;;16.90;62.60;;;;;;5052849;28;20574;-62
2021/11/19 07:05:12;;;;;;;3.65;3.10;;;16.90;62.60;;;;;;5052870;28;20213;-62
2021/11/19 07:07:37;;;;;;;3.28;2.80;;;16.90;62.60;;;;;;5052134;28;20205;-61
2021/11/19 07:10:03;;;;;;;3.60;3.30;;;16.90;62.60;;;;;;5053239;28;20179;-61
2021/11/19 07:12:29;;;;;;;4.03;3.42;;;16.90;62.60;;;;;;5051469;28;20218;-62
2021/11/19 07:14:54;;;;;;;4.57;3.22;;;16.90;62.70;;;;;;5052197;28;20202;-62
2021/11/19 07:17:20;;;;;;;3.53;2.90;;;16.90;62.60;;;;;;5052478;28;20209;-63
2021/11/19 07:19:45;;;;;;;3.40;3.10;;;16.90;62.60;;;;;;5052388;28;20175;-63
2021/11/19 07:22:11;;;;;;;4.05;3.42;;;16.90;62.70;;;;;;5052293;28;20194;-63
2021/11/19 07:24:37;;;;;;;3.70;3.28;;;16.90;62.70;;;;;;5052467;28;20532;-63
2021/11/19 07:27:04;;;;;;;4.13;3.40;;;16.90;62.70;;;;;;5052791;28;20195;-63
2021/11/19 07:29:29;;;;;;;2.90;2.70;;;16.90;62.70;;;;;;5051562;28;20246;-62
2021/11/19 07:31:55;;;;;;;3.97;2.97;;;16.90;62.60;;;;;;5052614;28;20179;-63
2021/11/19 07:34:20;;;;;;;3.38;2.80;;;16.90;62.70;;;;;;5052362;28;20619;-61
2021/11/19 07:36:46;;;;;;;3.80;3.20;;;16.90;62.70;;;;;;5051376;28;20179;-62
2021/11/19 07:39:11;;;;;;;3.55;3.10;;;17.00;62.80;;;;;;5052664;28;20179;-62
2021/11/19 07:41:37;;;;;;;3.47;3.05;;;17.10;62.70;;;;;;5051571;28;20175;-63
2021/11/19 07:44:03;;;;;;;3.38;3.08;;;17.20;62.60;;;;;;5052393;28;20178;-62
2021/11/19 07:46:32;;;;;;;4.38;3.05;;;17.40;62.40;;;;;;5052320;28;20235;-61
2021/11/19 07:48:58;;;;;;;3.03;2.75;;;17.50;62.00;;;;;;5051560;28;20297;-62
2021/11/19 07:51:26;;;;;;;3.35;2.53;;;17.60;61.80;;;;;;5052390;28;20271;-62
2021/11/19 07:53:51;;;;;;;3.30;3.00;;;17.70;61.80;;;;;;5052434;28;20179;-64
2021/11/19 07:56:19;;;;;;;2.92;2.38;;;17.80;61.30;;;;;;5051586;28;20540;-63
2021/11/19 07:58:44;;;;;;;2.45;2.30;;;17.90;60.90;;;;;;5051936;28;20270;-63
2021/11/19 08:01:10;;;;;;;2.53;2.33;;;18.00;60.70;;;;;;5052128;28;20250;-64
2021/11/19 08:03:36;;;;;;;2.60;2.40;;;18.10;60.60;;;;;;5050891;28;20176;-63
2021/11/19 08:06:03;;;;;;;3.15;2.42;;;18.20;60.70;;;;;;5052131;28;20167;-63
2021/11/19 08:08:30;;;;;;;4.28;2.58;;;18.20;61.00;;;;;;5051838;28;20219;-62
2021/11/19 08:10:55;;;;;;;3.60;2.88;;;18.20;61.20;;;;;;5051287;28;20179;-65
2021/11/19 08:13:20;;;;;;;2.90;2.60;;;18.30;61.30;;;;;;5052367;28;20258;-66
2021/11/19 08:15:55;;;;;;;3.47;3.05;;;18.40;60.90;;;;;;5051669;28;20175;-65
2021/11/19 08:18:32;;;;;;;3.88;2.45;;;18.60;60.40;;;;;;5049537;28;20175;-66
2021/11/19 08:20:59;;;;;;;4.35;2.67;;;18.70;60.20;;;;;;5050610;28;20181;-68
2021/11/19 08:23:33;;;;;;;5.47;2.72;;;18.70;60.10;;;;;;5051767;28;20183;-68
2021/11/19 08:26:10;;;;;;;3.17;2.80;;;18.80;60.30;;;;;;5050983;28;20177;-67
2021/11/19 08:28:39;;;;;;;3.30;2.85;;;18.80;60.40;;;;;;5051342;28;20241;-67
2021/11/19 08:31:06;;;;;;;3.33;2.50;;;18.80;60.50;;;;;;5051461;28;20172;-68
2021/11/19 08:33:31;;;;;;;3.05;2.53;;;18.70;60.70;;;;;;5051534;28;20243;-68
2021/11/19 08:36:00;;;;;;;4.85;2.53;;;18.70;60.90;;;;;;5051745;28;20281;-68
2021/11/19 08:38:26;;;;;;;4.82;3.45;;;18.60;61.10;;;;;;5051195;28;20252;-68
2021/11/19 08:40:52;;;;;;;4.80;2.83;;;18.50;61.40;;;;;;5051377;28;20171;-68
2021/11/19 08:43:26;;;;;;;3.85;2.92;;;18.50;61.60;;;;;;5051551;28;20649;-68
2021/11/19 08:45:53;;;;;;;4.45;2.80;;;18.40;61.90;;;;;;5050604;28;20271;-67
2021/11/19 08:48:22;;;;;;;5.10;3.20;;;18.30;62.10;;;;;;5053064;28;20564;-68
2021/11/19 08:50:47;;;;;;;3.30;3.00;;;18.20;62.70;;;;;;5055415;28;20258;-67
2021/11/19 08:53:14;;;;;;;4.90;2.75;;;18.20;62.50;;;;;;5054820;28;20266;-68
2021/11/19 08:55:41;;;;;;;3.35;2.50;;;18.10;62.60;;;;;;5055149;28;20206;-68
2021/11/19 08:58:07;;;;;;;4.72;2.97;;;18.10;62.80;;;;;;5055616;28;20179;-68
2021/11/19 09:00:36;;;;;;;4.63;2.92;;;18.00;62.90;;;;;;5054526;28;20207;-69
2021/11/19 09:03:02;;;;;;;4.47;3.00;;;18.00;63.10;;;;;;5055546;28;20526;-68
2021/11/19 09:05:29;;;;;;;3.45;2.40;;;17.90;63.20;;;;;;5055402;28;20233;-68
2021/11/19 09:07:55;;;;;;;4.90;2.70;;;17.90;63.30;;;;;;5054488;28;20221;-68
2021/11/19 09:10:20;;;;;;;3.88;2.72;;;17.80;63.30;;;;;;5055155;28;20171;-67
2021/11/19 09:12:47;;;;;;;3.85;2.45;;;17.80;63.40;;;;;;5054574;28;20641;-67
2021/11/19 09:15:15;;;;;;;4.47;3.00;;;17.80;63.40;;;;;;5054450;28;20217;-62
2021/11/19 09:17:58;;;;;;;4.75;3.03;;;17.80;63.40;;;;;;5054664;28;20626;-62
2021/11/19 09:20:38;;;;;;;4.10;2.90;;;17.70;63.70;;;;;;5052907;28;20587;-67
2021/11/19 09:23:22;;;;;;;4.43;3.20;;;17.70;63.90;;;;;;5055188;28;20187;-65
2021/11/19 09:25:49;;;;;;;3.90;2.53;;;17.70;64.00;;;;;;5054626;28;20179;-65
2021/11/19 09:28:16;;;;;;;6.43;3.00;;;17.70;64.00;;;;;;5054130;28;20203;-64
2021/11/19 09:30:44;;;;;;;3.83;2.92;;;17.80;64.00;;;;;;5054478;28;20182;-66
2021/11/19 09:33:12;;;;;;;4.10;2.60;;;17.80;63.90;;;;;;5054432;28;20217;-66
2021/11/19 09:35:37;;;;;;;3.35;2.45;;;17.90;63.90;;;;;;5053909;28;20214;-67
2021/11/19 09:38:04;;;;;;;4.47;3.05;;;17.90;63.60;;;;;;5054597;28;20223;-66
2021/11/19 09:40:41;;;;;;;4.75;2.83;;;18.00;63.60;;;;;;5053770;28;20647;-65
2021/11/19 09:43:22;;;;;;;2.72;2.00;;;18.00;63.40;;;;;;5053650;28;20603;-66
2021/11/19 09:45:56;;;;;;;3.53;2.25;;;18.00;63.60;;;;;;5052518;28;20254;-65
2021/11/19 09:48:35;;;;;;;4.25;2.60;;;18.00;63.50;;;;;;5052555;28;20221;-66
2021/11/19 09:51:09;;;;;;;2.45;2.08;;;18.00;63.60;;;;;;5052968;28;20198;-66
2021/11/19 09:54:01;;;;;;;3.28;2.60;;;17.90;63.50;;;;;;5061267;28;20184;-67
2021/11/19 09:56:54;;;;;;;3.10;2.42;;;17.90;63.50;;;;;;5042357;28;20254;-66
2021/11/19 09:59:27;;;;;;;4.38;2.33;;;17.90;63.60;;;;;;5058633;28;20665;-67
2021/11/19 10:02:03;;;;;;;4.82;2.85;;;17.90;63.70;;;;;;5067139;28;20170;-65
2021/11/19 10:04:50;;;;;;;5.20;2.75;;;17.90;63.60;;;;;;5071918;28;20206;-65
2021/11/19 10:07:22;;;;;;;3.35;2.75;;;18.00;63.60;;;;;;5072833;28;20644;-66
2021/11/19 10:10:21;;;;;;;2.50;2.30;;;17.90;63.50;;;;;;5063447;28;20206;-65
2021/11/19 10:13:10;;;;;;;6.53;2.80;;;17.90;63.50;;;;;;5054049;28;20183;-65
2021/11/19 10:15:49;;;;;;;2.70;2.50;;;17.90;63.60;;;;;;5052423;28;20258;-65
2021/11/19 10:18:41;;;;;;;4.55;2.72;;;17.90;63.60;;;;;;5051772;28;20194;-65
2021/11/19 10:21:32;;;;;;;4.82;2.47;;;17.90;63.60;;;;;;5050465;28;20179;-65
2021/11/19 10:24:22;;;;;;;3.63;2.50;;;17.80;63.60;;;;;;5052932;28;20182;-65
2021/11/19 10:26:48;;;;;;;3.95;2.47;;;17.80;63.60;;;;;;5046931;28;20173;-65
2021/11/19 10:29:23;;;;;;;3.40;2.10;;;17.80;63.70;;;;;;5073391;28;20202;-67
2021/11/19 10:31:49;;;;;;;2.40;2.00;;;17.80;63.60;;;;;;5073046;28;20603;-65
2021/11/19 10:34:56;;;;;;;5.90;2.30;;;17.80;63.60;;;;;;5073619;28;20186;-67
2021/11/19 10:37:44;;;;;;;3.10;2.42;;;17.80;63.70;;;;;;5050593;28;20175;-67
2021/11/19 10:40:46;;;;;;;2.90;2.20;;;17.80;63.70;;;;;;5036911;28;20693;-67
2021/11/19 10:43:40;;;;;;;2.40;2.13;;;17.80;63.80;;;;;;5070092;28;20193;-66
2021/11/19 10:46:28;;;;;;;2.88;2.55;;;17.70;63.70;;;;;;5071140;28;20317;-66
2021/11/19 10:49:12;;;;;;;3.15;2.03;;;17.70;63.90;;;;;;5072213;28;20224;-65
2021/11/19 10:52:03;;;;;;;2.30;1.95;;;17.70;63.90;;;;;;5072286;28;20174;-66
2021/11/19 10:54:47;;;;;;;2.35;2.15;;;17.70;64.00;;;;;;5055319;28;20610;-67
2021/11/19 10:57:37;;;;;;;2.20;2.00;;;17.70;64.00;;;;;;5073409;28;20533;-67
2021/11/19 11:00:28;;;;;;;2.28;2.08;;;17.70;64.20;;;;;;5055665;28;20182;-66
2021/11/19 11:02:56;;;;;;;4.22;2.35;;;17.70;64.10;;;;;;5053166;28;20203;-66
2021/11/19 11:05:24;;;;;;;2.95;2.45;;;17.70;64.10;;;;;;5052866;28;20262;-66
2021/11/19 11:08:13;;;;;;;2.05;1.75;;;17.70;64.00;;;;;;5051710;28;20665;-65
2021/11/19 11:10:45;;;;;;;3.22;2.33;;;17.70;64.00;;;;;;5052081;28;20172;-65
2021/11/19 11:13:59;;;;;;;3.05;2.33;;;17.70;64.00;;;;;;5051857;28;20258;-64
2021/11/19 11:16:27;;;;;;;2.35;2.15;;;17.70;64.10;;;;;;5030442;28;20185;-65
2021/11/19 11:19:11;;;;;;;2.90;2.17;;;17.70;64.10;;;;;;5046918;28;20186;-68
2021/11/19 11:21:50;;;;;;;3.00;2.40;;;17.70;64.30;;;;;;5051352;28;20562;-67
2021/11/19 11:24:31;;;;;;;3.03;1.85;;;17.70;64.50;;;;;;5052613;28;20175;-66
2021/11/19 11:27:12;;;;;;;2.40;2.00;;;17.70;64.30;;;;;;5051550;28;20649;-66
2021/11/19 11:29:53;;;;;;;3.78;2.40;;;17.70;64.60;;;;;;5051915;28;20703;-61
2021/11/19 11:32:30;;;;;;;3.83;2.30;;;17.60;64.70;;;;;;5052566;28;20175;-64
2021/11/19 11:35:19;;;;;;;4.35;1.90;;;17.60;64.70;;;;;;5051879;28;20222;-65
2021/11/19 11:38:10;;;;;;;3.95;2.22;;;17.60;64.50;;;;;;5051938;28;20179;-65
2021/11/19 11:40:38;;;;;;;5.10;2.15;;;17.60;64.60;;;;;;5044686;28;20258;-65
2021/11/19 11:43:16;;;;;;;3.25;2.10;;;17.60;64.50;;;;;;5051777;28;20537;-64
2021/11/19 11:45:45;;;;;;;3.42;2.10;;;17.60;64.50;;;;;;5050187;28;20701;-63
2021/11/19 11:48:38;;;;;;;5.47;2.42;;;17.60;64.70;;;;;;5051101;28;20589;-63
2021/11/19 11:51:29;;;;;;;3.50;2.20;;;17.50;64.60;;;;;;5035828;28;20159;-64
2021/11/19 11:54:17;;;;;;;7.60;2.45;;;17.50;64.70;;;;;;5050839;28;20317;-65
2021/11/19 11:56:45;;;;;;;6.78;2.38;;;17.60;64.60;;;;;;5051118;28;20179;-64
2021/11/19 11:59:33;;;;;;;3.45;2.20;;;17.50;64.60;;;;;;5052343;28;20175;-69
2021/11/19 12:01:59;;;;;;;5.28;2.67;;;17.60;64.70;;;;;;5068993;28;20182;-65
2021/11/19 12:04:31;;;;;;;4.50;2.22;;;17.70;64.40;;;;;;5071879;28;20659;-64
2021/11/19 12:07:31;;;;;;;3.42;2.10;;;17.70;64.40;;;;;;5071882;28;20179;-65
2021/11/19 12:10:13;;;;;;;2.45;1.80;;;17.70;64.50;;;;;;5070454;28;20201;-66
2021/11/19 12:12:44;;;;;;;2.08;1.85;;;17.70;64.60;;;;;;5070480;28;20174;-65
2021/11/19 12:15:26;;;;;;;2.38;1.83;;;17.70;64.80;;;;;;5054447;28;20659;-66
2021/11/19 12:18:08;;;;;;;3.22;1.80;;;17.80;64.80;;;;;;5069762;28;20201;-65
2021/11/19 12:20:56;;;;;;;4.20;2.03;;;17.90;64.80;;;;;;5070448;28;20188;-66
2021/11/19 12:23:29;;;;;;;4.05;1.60;;;18.00;64.50;;;;;;5070404;28;20170;-64
2021/11/19 12:26:24;;;;;;;2.92;1.80;;;18.20;64.20;;;;;;5054597;28;20178;-67
2021/11/19 12:29:10;;;;;;;2.75;1.90;;;18.40;63.60;;;;;;5071198;28;20565;-64
2021/11/19 12:32:01;;;;;;;3.47;2.13;;;18.60;63.30;;;;;;5069987;28;20281;-65
2021/11/19 12:35:16;;;;;;;4.57;1.75;;;18.70;62.80;;;;;;5071448;28;20170;-66
2021/11/19 12:38:05;;;;;;;3.83;1.40;;;18.90;62.10;;;;;;5046943;28;20208;-66
2021/11/19 12:40:44;;;;;;;2.42;1.75;;;19.20;61.40;;;;;;5071166;28;20167;-66
2021/11/19 12:43:37;;;;;;;2.47;1.48;;;19.30;60.90;;;;;;5071368;28;20174;-65
2021/11/19 12:46:40;;;;;;;3.15;1.65;;;19.40;60.50;;;;;;5069573;28;20275;-66
2021/11/19 12:49:19;;;;;;;3.67;1.80;;;19.50;60.30;;;;;;5071398;28;20214;-67
2021/11/19 12:52:14;;;;;;;2.13;1.70;;;19.60;60.10;;;;;;5070975;28;20178;-65
2021/11/19 12:55:01;;;;;;;1.60;1.50;;;19.70;60.00;;;;;;5071313;28;20228;-64
2021/11/19 12:57:50;;;;;;;2.00;1.77;;;19.60;60.10;;;;;;5070028;28;20171;-65
2021/11/19 13:00:22;;;;;;;1.50;1.30;;;19.60;60.40;;;;;;5066055;28;20229;-73
2021/11/19 13:03:10;;;;;;;3.47;1.60;;;19.40;60.80;;;;;;5049502;28;20714;-64
2021/11/19 13:06:02;;;;;;;6.30;1.85;;;19.40;60.90;;;;;;5050180;28;20506;-64
2021/11/19 13:08:36;;;;;;;6.30;1.50;;;19.30;61.20;;;;;;5033838;28;20642;-67
2021/11/19 13:11:29;;;;;;;3.28;1.73;;;19.20;61.60;;;;;;5051076;28;20167;-66
2021/11/19 13:14:13;;;;;;;10.27;2.58;;;19.10;61.90;;;;;;5050248;28;20167;-67